KBIL

Billings Logan International Airport

Billings, Montana, USA
METAR KBIL 181353Z 23003KT 3SM -SN BR OVC041 M06/M07 A2995 RMK AO2 SLP186 P0000 T10611072
Observed Flight Rules
Jan-18 @ 13:53 UTC (25 minutes ago) Marginal Visual Flight Rules
Wind Visibility Clouds Conditions
230° at 3 knots 3 miles
  • Overcast at 4,100' AGL
  • Light Snow
  • Mist
Temperatures Readings Precipitation
Current -6°C / 21°F
Dewpoint -7°C / 19°F
Humidity 93%
Altimeter 29.95" Hg
Pressure 1018.6 hPa
Elevation 1091
Current Rain 0.01
METAR KBIL 181353Z 23003KT 3SM -SN BR OVC041 M06/M07 A2995 RMK AO2 SLP186 P0000 T10611072
Observed Flight Rules
Jan-18 @ 13:53 UTC
(25 minutes ago)
MVFR
Wind Visibility
230° at 3 knots 3 miles
Clouds
  • Overcast at 4,100' AGL
Conditions
  • Light Snow
  • Mist
Temperature Dewpoint
-6°C / 21°F -7°C / 19°F
Humidity Altimeter Pressure
93% 29.95" Hg 1018.6 hPa
Current Rain
0.01